Time;durP1;ratioP1;P1;durP2;ratioP2;P2;SDS_P1;SDS_P2;PMS_P1;PMS_P2;Temp;Humidity;BMP_temperature;BMP_pressure;BME280_temperature;BME280_humidity;BME280_pressure;Samples;Min_cycle;Max_cycle;Signal;HPM_P1;HPM_P2
2020/12/02 00:00:45;;;;;;;10.90;3.35;;;;;;;9.17;89.87;102483.06;5059865;28;20436;-87
2020/12/02 00:03:11;;;;;;;13.18;3.65;;;;;;;9.16;89.83;102484.00;5064250;28;20033;-87
2020/12/02 00:05:39;;;;;;;15.68;3.25;;;;;;;9.16;89.85;102477.91;5057438;28;20061;-88
2020/12/02 00:08:13;;;;;;;11.05;3.20;;;;;;;9.14;89.87;102461.41;5054309;28;20024;-88
2020/12/02 00:10:39;;;;;;;13.23;3.70;;;;;;;9.13;89.73;102472.81;5053654;28;20025;-88
2020/12/02 00:13:07;;;;;;;10.10;3.08;;;;;;;9.11;89.79;102469.44;5053776;28;20060;-88
2020/12/02 00:15:33;;;;;;;7.78;3.20;;;;;;;9.11;89.91;102469.44;5053549;28;20027;-88
2020/12/02 00:17:59;;;;;;;11.18;3.70;;;;;;;9.09;89.79;102473.94;5053108;28;20021;-87
2020/12/02 00:20:25;;;;;;;9.35;2.67;;;;;;;9.09;89.91;102456.47;5053488;28;20017;-88
2020/12/02 00:22:51;;;;;;;6.97;2.40;;;;;;;9.09;89.79;102460.84;5053353;28;20021;-88
2020/12/02 00:25:17;;;;;;;9.30;2.95;;;;;;;9.10;89.70;102457.31;5053534;28;20449;-87
2020/12/02 00:27:43;;;;;;;10.77;2.80;;;;;;;9.10;89.79;102459.91;5053465;28;20029;-88
2020/12/02 00:30:13;;;;;;;6.75;2.60;;;;;;;9.08;89.92;102456.56;5053714;28;20040;-88
2020/12/02 00:32:42;;;;;;;7.60;2.70;;;;;;;9.07;89.89;102447.84;5053312;28;20079;-87
2020/12/02 00:35:16;;;;;;;9.23;2.47;;;;;;;9.06;89.94;102456.63;5052955;28;20127;-86
2020/12/02 00:37:42;;;;;;;9.03;2.77;;;;;;;9.06;89.93;102456.63;5052801;28;20036;-87
2020/12/02 00:40:09;;;;;;;9.68;2.80;;;;;;;9.06;89.86;102455.78;5052550;28;20480;-87
2020/12/02 00:42:34;;;;;;;6.50;2.55;;;;;;;9.04;90.07;102453.28;5052673;28;20120;-87
2020/12/02 00:45:00;;;;;;;4.65;2.60;;;;;;;9.05;90.00;102457.56;5054341;28;20436;-87
2020/12/02 00:47:25;;;;;;;6.80;2.75;;;;;;;9.05;90.20;102454.94;5053191;28;20074;-87
2020/12/02 00:49:53;;;;;;;7.88;2.97;;;;;;;9.06;90.18;102458.41;5052911;28;20097;-87
2020/12/02 00:52:19;;;;;;;10.48;3.13;;;;;;;9.05;90.30;102454.09;5052645;28;20032;-88
2020/12/02 00:54:45;;;;;;;8.18;3.20;;;;;;;9.04;90.67;102449.81;5052605;28;20036;-87
2020/12/02 00:57:28;;;;;;;8.23;3.13;;;;;;;9.02;90.51;102447.28;5052607;28;20032;-87
2020/12/02 00:59:57;;;;;;;6.40;3.25;;;;;;;9.02;90.57;102443.81;5052464;28;20021;-87
2020/12/02 01:02:37;;;;;;;8.27;2.65;;;;;;;9.02;90.54;102449.91;5052594;28;20033;-87
2020/12/02 01:05:09;;;;;;;6.88;2.60;;;;;;;9.03;90.49;102453.34;5052346;28;20032;-87
2020/12/02 01:07:39;;;;;;;8.48;2.67;;;;;;;9.03;90.62;102442.88;5052589;28;20495;-87
2020/12/02 01:10:05;;;;;;;5.35;2.70;;;;;;;9.01;90.80;102450.84;5052267;28;20032;-88
2020/12/02 01:12:32;;;;;;;6.88;2.78;;;;;;;9.02;90.81;102444.66;5052566;28;20021;-87
2020/12/02 01:14:57;;;;;;;8.95;3.00;;;;;;;9.00;90.92;102447.38;5052350;28;20029;-87
2020/12/02 01:17:22;;;;;;;7.90;3.08;;;;;;;9.00;90.87;102447.38;5052415;28;20160;-86
2020/12/02 01:19:48;;;;;;;7.18;3.13;;;;;;;9.00;90.85;102436.91;5052029;28;20419;-86
2020/12/02 01:22:35;;;;;;;9.27;3.72;;;;;;;9.00;90.91;102434.28;5052182;28;20033;-87
2020/12/02 01:25:06;;;;;;;6.88;3.13;;;;;;;8.99;91.12;102431.72;5052016;28;20052;-87
2020/12/02 01:28:02;;;;;;;9.85;3.63;;;;;;;9.00;91.07;102430.81;5052007;28;20025;-86
2020/12/02 01:30:28;;;;;;;7.00;3.50;;;;;;;8.99;91.12;102418.63;5052016;28;20016;-86
2020/12/02 01:32:53;;;;;;;7.57;3.25;;;;;;;9.00;91.41;102422.97;5053067;28;20542;-86
2020/12/02 01:35:22;;;;;;;10.02;3.92;;;;;;;9.02;91.21;102422.88;5051631;28;20071;-87
2020/12/02 01:37:54;;;;;;;6.32;3.58;;;;;;;9.01;91.39;102416.81;5051954;28;20024;-86
2020/12/02 01:40:24;;;;;;;6.05;3.40;;;;;;;8.98;91.35;102417.81;5051866;28;20037;-86
2020/12/02 01:43:00;;;;;;;9.15;3.25;;;;;;;9.00;91.59;102409.88;5051827;28;20029;-87
2020/12/02 01:45:34;;;;;;;6.43;3.25;;;;;;;9.00;91.40;102400.25;5051414;28;20432;-86
2020/12/02 01:48:31;;;;;;;7.53;3.33;;;;;;;8.98;91.50;102394.25;5052089;28;20021;-87
2020/12/02 01:51:01;;;;;;;6.82;3.78;;;;;;;9.02;91.45;102394.09;5051758;28;20029;-87
2020/12/02 01:54:15;;;;;;;10.52;3.60;;;;;;;8.97;91.67;102379.47;5051508;28;20488;-85
2020/12/02 01:57:14;;;;;;;7.43;3.95;;;;;;;8.98;92.04;102378.53;4974691;28;20118;-86
2020/12/02 01:59:58;;;;;;;10.52;4.00;;;;;;;9.00;91.62;102370.63;4990566;28;20038;-87
2020/12/02 02:03:02;;;;;;;7.70;3.80;;;;;;;9.00;91.83;102378.47;5042508;28;20032;-87
2020/12/02 02:05:51;;;;;;;7.70;3.93;;;;;;;9.02;91.85;102381.00;5051606;28;20055;-86
2020/12/02 02:08:21;;;;;;;6.32;3.42;;;;;;;9.02;91.88;102375.78;5051751;28;20029;-85
2020/12/02 02:10:49;;;;;;;7.25;2.97;;;;;;;9.02;92.05;102370.53;5051342;28;20021;-86
2020/12/02 02:13:29;;;;;;;5.03;2.47;;;;;;;9.02;92.12;102367.91;5051378;28;20029;-87
2020/12/02 02:15:57;;;;;;;5.00;2.47;;;;;;;9.02;92.09;102365.31;5051497;28;20029;-87
2020/12/02 02:18:26;;;;;;;6.00;2.60;;;;;;;9.03;92.17;102364.38;5051460;28;20032;-86
2020/12/02 02:20:56;;;;;;;5.45;2.58;;;;;;;9.04;92.18;102368.66;5050614;28;20021;-86
2020/12/02 02:23:22;;;;;;;7.95;2.85;;;;;;;9.04;92.41;102363.44;5050989;28;20028;-87
2020/12/02 02:26:03;;;;;;;7.70;2.78;;;;;;;9.00;92.44;102358.38;5052655;28;20028;-86
2020/12/02 02:28:30;;;;;;;5.30;2.53;;;;;;;9.00;92.46;102347.91;5051678;28;20064;-86
2020/12/02 02:30:56;;;;;;;4.38;2.47;;;;;;;8.98;92.85;102346.28;5051110;28;20088;-87
2020/12/02 02:33:24;;;;;;;5.15;2.00;;;;;;;8.96;92.64;102343.75;5051135;28;20480;-87
2020/12/02 02:35:49;;;;;;;8.40;2.63;;;;;;;8.89;92.79;102337.22;5051001;28;20025;-86
2020/12/02 02:38:19;;;;;;;8.55;2.80;;;;;;;8.87;92.74;102341.69;5050869;28;20040;-86
2020/12/02 02:40:45;;;;;;;6.97;3.03;;;;;;;8.84;92.91;102330.56;5049703;28;20045;-86
2020/12/02 02:43:11;;;;;;;4.93;2.50;;;;;;;8.84;93.02;102326.19;5050951;28;20561;-86
2020/12/02 02:45:36;;;;;;;5.30;2.20;;;;;;;8.80;93.15;102321.19;5050726;28;20021;-87
2020/12/02 02:48:06;;;;;;;6.70;2.28;;;;;;;8.78;93.48;102318.66;5051062;28;20551;-87
2020/12/02 02:50:33;;;;;;;4.13;1.95;;;;;;;8.76;93.47;102312.69;5050592;28;20485;-86
2020/12/02 02:52:59;;;;;;;3.88;1.95;;;;;;;8.77;93.56;102321.38;5050555;28;20025;-86
2020/12/02 02:55:26;;;;;;;5.22;2.22;;;;;;;8.78;93.15;102310.81;5050510;28;20439;-86
2020/12/02 02:57:52;;;;;;;5.60;1.85;;;;;;;8.79;93.50;102302.03;5051009;28;20021;-87
2020/12/02 03:00:22;;;;;;;4.55;1.90;;;;;;;8.77;93.51;102293.44;5051117;28;20085;-87
2020/12/02 03:02:48;;;;;;;6.70;1.70;;;;;;;8.73;93.82;102286.72;5050893;28;20017;-86
2020/12/02 03:05:15;;;;;;;4.03;2.08;;;;;;;8.70;93.66;102284.28;5050599;28;20029;-86
2020/12/02 03:07:42;;;;;;;4.20;1.55;;;;;;;8.65;93.74;102275.84;5055368;28;20021;-87
2020/12/02 03:10:09;;;;;;;2.33;1.33;;;;;;;8.59;94.04;102276.22;5057656;28;20021;-87
2020/12/02 03:12:35;;;;;;;3.42;1.40;;;;;;;8.56;93.85;102279.00;5058789;28;20476;-87
2020/12/02 03:15:00;;;;;;;2.90;1.55;;;;;;;8.51;93.84;102267.94;5056375;28;20039;-86
2020/12/02 03:17:27;;;;;;;3.13;1.30;;;;;;;8.48;93.85;102266.34;5051403;28;20108;-86
2020/12/02 03:20:07;;;;;;;3.47;1.48;;;;;;;8.45;94.12;102250.84;5050826;28;20017;-85
2020/12/02 03:22:34;;;;;;;2.70;1.10;;;;;;;8.43;94.28;102247.47;5054682;28;20033;-86
2020/12/02 03:25:01;;;;;;;2.50;1.23;;;;;;;8.40;94.24;102242.44;5052856;28;20463;-85
2020/12/02 03:27:26;;;;;;;4.63;1.52;;;;;;;8.37;94.24;102237.41;5057011;28;20021;-86
2020/12/02 03:29:52;;;;;;;3.47;1.25;;;;;;;8.33;94.48;102230.59;5051961;28;20013;-86
2020/12/02 03:32:18;;;;;;;2.38;1.27;;;;;;;8.31;94.53;102222.84;5053303;28;20029;-87
2020/12/02 03:34:44;;;;;;;4.05;1.60;;;;;;;8.28;94.50;102223.03;5054632;28;20480;-86
2020/12/02 03:37:09;;;;;;;4.82;1.63;;;;;;;8.26;94.53;102216.22;5054122;28;20032;-87
2020/12/02 03:39:35;;;;;;;2.85;1.63;;;;;;;8.25;94.78;102212.75;5053866;28;20069;-86
2020/12/02 03:42:00;;;;;;;4.45;1.50;;;;;;;8.26;94.57;102205.75;5055283;28;20032;-86
2020/12/02 03:44:26;;;;;;;4.35;1.55;;;;;;;8.27;94.60;102194.38;5055299;28;20027;-87
2020/12/02 03:46:51;;;;;;;3.80;1.33;;;;;;;8.31;94.47;102188.03;5053854;28;20017;-85
2020/12/02 03:49:17;;;;;;;3.53;1.52;;;;;;;8.36;94.65;102193.84;5054008;28;20060;-87
2020/12/02 03:51:42;;;;;;;2.97;1.17;;;;;;;8.40;94.87;102188.38;5054106;28;20395;-86
2020/12/02 03:54:08;;;;;;;2.90;1.30;;;;;;;8.47;94.85;102190.63;5053873;28;20031;-87
2020/12/02 03:56:33;;;;;;;3.63;1.23;;;;;;;8.52;94.62;102181.59;5053463;28;20052;-86
2020/12/02 03:58:59;;;;;;;3.13;1.10;;;;;;;8.57;94.50;102181.31;5053863;28;20119;-87
2020/12/02 04:01:24;;;;;;;2.50;1.20;;;;;;;8.61;94.38;102169.72;5057189;28;20028;-86
2020/12/02 04:03:50;;;;;;;6.90;1.25;;;;;;;8.66;94.76;102170.28;5060642;28;20155;-87
2020/12/02 04:06:16;;;;;;;3.78;1.30;;;;;;;8.70;94.48;102170.03;5056564;28;20115;-87
2020/12/02 04:08:42;;;;;;;3.55;1.10;;;;;;;8.73;94.31;102166.38;5065266;28;20021;-87
2020/12/02 04:11:09;;;;;;;3.13;1.08;;;;;;;8.75;94.48;102159.28;5061144;28;20045;-87
2020/12/02 04:13:35;;;;;;;2.40;1.23;;;;;;;8.76;94.19;102166.19;5057968;28;20037;-87
2020/12/02 04:16:01;;;;;;;2.67;1.50;;;;;;;8.76;94.25;102163.56;5054849;28;20029;-86
2020/12/02 04:18:28;;;;;;;2.75;1.20;;;;;;;8.77;94.40;102162.63;5054197;28;20028;-87
2020/12/02 04:20:53;;;;;;;3.67;1.40;;;;;;;8.78;94.24;102169.53;5054734;28;20067;-87
2020/12/02 04:23:18;;;;;;;2.05;1.10;;;;;;;8.80;94.21;102174.69;5053422;28;20064;-87
2020/12/02 04:25:44;;;;;;;4.32;2.72;;;;;;;8.80;94.27;102161.59;5053550;28;20038;-86
2020/12/02 04:28:09;;;;;;;2.83;1.42;;;;;;;8.81;94.03;102161.50;5053209;28;20060;-86
2020/12/02 04:30:35;;;;;;;3.80;1.30;;;;;;;8.84;94.28;102157.88;5053166;28;20037;-87
2020/12/02 04:33:00;;;;;;;5.43;1.38;;;;;;;8.83;94.20;102156.16;5053160;28;20028;-86
2020/12/02 04:35:25;;;;;;;3.63;1.45;;;;;;;8.83;94.24;102145.72;5052956;28;20039;-86
2020/12/02 04:37:51;;;;;;;5.53;1.67;;;;;;;8.82;94.45;102150.09;5053318;28;20025;-85
2020/12/02 04:40:24;;;;;;;3.75;1.65;;;;;;;8.84;94.21;102152.66;5052601;28;20518;-87
2020/12/02 04:42:57;;;;;;;3.85;1.60;;;;;;;8.83;94.44;102149.16;5053428;28;20025;-86
2020/12/02 04:45:24;;;;;;;5.45;1.60;;;;;;;8.82;94.46;102139.63;5052709;28;20070;-87
2020/12/02 04:47:50;;;;;;;2.63;1.52;;;;;;;8.81;94.50;102140.56;5059804;28;20025;-87
2020/12/02 04:50:26;;;;;;;4.57;1.70;;;;;;;8.78;94.47;102142.53;5062828;28;20025;-86
2020/12/02 04:53:00;;;;;;;4.43;1.40;;;;;;;8.77;94.51;102136.47;5053284;28;20021;-87
2020/12/02 04:55:27;;;;;;;3.67;1.38;;;;;;;8.77;94.65;102133.00;5052627;28;20111;-87
2020/12/02 04:57:52;;;;;;;2.88;1.33;;;;;;;8.75;94.59;102135.72;5052585;28;20032;-86
2020/12/02 05:00:24;;;;;;;5.82;1.70;;;;;;;8.74;94.59;102135.81;5052634;28;20471;-87
2020/12/02 05:02:50;;;;;;;2.53;1.38;;;;;;;8.74;94.64;102136.66;5052542;28;20036;-87
2020/12/02 05:05:20;;;;;;;1.77;1.05;;;;;;;8.76;94.65;102128.72;5052257;28;20021;-86
2020/12/02 05:07:46;;;;;;;3.67;1.10;;;;;;;8.75;94.61;102124.41;5052301;28;20123;-86
2020/12/02 05:10:18;;;;;;;3.78;1.05;;;;;;;8.77;94.60;102126.00;5052265;28;20021;-86
2020/12/02 05:12:46;;;;;;;2.60;1.00;;;;;;;8.77;94.68;102123.38;5051971;28;20430;-87
2020/12/02 05:15:28;;;;;;;4.22;1.25;;;;;;;8.76;94.79;102118.25;5052197;28;20036;-86
2020/12/02 05:18:14;;;;;;;4.13;1.02;;;;;;;8.76;94.77;102108.63;5052904;28;20028;-87
2020/12/02 05:20:41;;;;;;;3.47;1.10;;;;;;;8.78;94.80;102111.97;5053925;28;20032;-87
2020/12/02 05:23:19;;;;;;;3.17;1.40;;;;;;;8.77;95.01;102099.00;5053355;28;20070;-87
2020/12/02 05:25:44;;;;;;;3.95;1.40;;;;;;;8.77;94.94;102104.22;5052320;28;20397;-87
2020/12/02 05:28:33;;;;;;;3.65;1.55;;;;;;;8.75;95.04;102096.47;5058493;28;20021;-87
2020/12/02 05:31:12;;;;;;;2.60;1.20;;;;;;;8.74;94.98;102088.72;5061062;28;20025;-88
2020/12/02 05:33:38;;;;;;;2.70;1.15;;;;;;;8.73;95.27;102093.13;5053087;28;20021;-87
2020/12/02 05:36:12;;;;;;;3.65;1.30;;;;;;;8.71;95.17;102092.38;5051746;28;20110;-87
2020/12/02 05:38:46;;;;;;;3.78;1.20;;;;;;;8.69;95.39;102091.63;5052176;28;20119;-88
2020/12/02 05:41:15;;;;;;;2.75;1.20;;;;;;;8.69;95.48;102091.63;5051876;28;20041;-88
2020/12/02 05:43:47;;;;;;;2.45;0.93;;;;;;;8.67;95.58;102096.94;5051951;28;20403;-88
2020/12/02 05:46:21;;;;;;;2.08;0.80;;;;;;;8.67;95.45;102098.72;5052294;28;20025;-89
2020/12/02 05:48:46;;;;;;;1.58;0.80;;;;;;;8.65;95.65;102095.34;5052485;28;20029;-89
2020/12/02 05:51:15;;;;;;;3.00;1.80;;;;;;;8.65;95.43;102084.88;5052418;28;20021;-89
2020/12/02 05:54:15;;;;;;;2.63;1.05;;;;;;;8.62;95.82;102083.31;5052421;28;20099;-90
2020/12/02 05:56:44;;;;;;;3.20;1.30;;;;;;;8.61;95.87;102099.94;5052121;28;20025;-90
2020/12/02 05:59:10;;;;;;;3.50;1.23;;;;;;;8.61;95.96;102109.56;5052129;28;20017;-90
2020/12/02 06:01:35;;;;;;;2.80;1.45;;;;;;;8.51;96.84;102121.50;5052252;28;20087;-89
2020/12/02 06:04:02;;;;;;;2.63;1.10;;;;;;;8.37;97.36;102119.72;5053012;28;20098;-89
2020/12/02 06:06:31;;;;;;;8.63;1.40;;;;;;;8.20;97.13;102117.22;5052537;28;20025;-91
2020/12/02 06:08:57;;;;;;;7.82;1.20;;;;;;;7.96;96.82;102112.50;5052079;28;20025;-90
2020/12/02 06:11:27;;;;;;;10.60;1.30;;;;;;;7.79;96.75;102115.25;5052736;28;20543;-90
2020/12/02 06:13:55;;;;;;;6.93;1.60;;;;;;;7.59;96.75;102108.56;5052282;28;20052;-91
2020/12/02 06:16:24;;;;;;;7.03;1.00;;;;;;;7.46;96.75;102108.41;5052188;28;20053;-90
2020/12/02 06:18:50;;;;;;;10.85;1.20;;;;;;;7.36;96.91;102109.00;5052016;28;20029;-90
2020/12/02 06:21:54;;;;;;;9.48;1.58;;;;;;;7.28;96.82;102117.25;5052479;28;20033;-90
2020/12/02 06:24:46;;;;;;;10.43;2.80;;;;;;;7.22;97.11;102120.19;5052576;28;20552;-90
2020/12/02 06:27:14;;;;;;;11.13;1.65;;;;;;;7.18;96.97;102119.53;5053505;28;20033;-89
2020/12/02 06:29:44;;;;;;;14.10;2.72;;;;;;;7.17;96.90;102127.44;5051861;28;20039;-89
2020/12/02 06:32:23;;;;;;;14.77;2.13;;;;;;;7.12;96.71;102119.03;5051954;28;20029;-90
2020/12/02 06:35:06;;;;;;;9.10;1.48;;;;;;;7.07;96.79;102116.63;5051976;28;20041;-89
2020/12/02 06:37:31;;;;;;;8.18;2.03;;;;;;;7.04;96.80;102122.03;5052504;28;20025;-89
2020/12/02 06:39:59;;;;;;;15.85;2.45;;;;;;;6.99;96.73;102113.63;5051946;28;20560;-90
2020/12/02 06:42:41;;;;;;;18.33;3.35;;;;;;;6.97;96.57;102110.25;5051723;28;20040;-89
2020/12/02 06:45:16;;;;;;;20.30;2.92;;;;;;;6.96;96.76;102105.13;5051586;28;20029;-89
2020/12/02 06:47:50;;;;;;;13.57;2.40;;;;;;;6.96;96.71;102097.31;5052132;28;20029;-89
2020/12/02 06:50:26;;;;;;;14.77;2.05;;;;;;;6.96;96.67;102103.34;5051766;28;20545;-89
2020/12/02 06:52:56;;;;;;;14.10;2.58;;;;;;;6.95;96.50;102091.25;5053199;28;20041;-89
2020/12/02 06:55:25;;;;;;;18.50;2.47;;;;;;;6.96;96.67;102098.13;5053022;28;20496;-89
2020/12/02 06:58:00;;;;;;;22.83;4.05;;;;;;;6.97;96.74;102101.59;5052420;28;20480;-90
2020/12/02 07:00:29;;;;;;;18.88;2.47;;;;;;;6.97;96.86;102099.81;5054264;28;20037;-88
2020/12/02 07:03:02;;;;;;;11.90;2.88;;;;;;;6.97;96.59;102105.03;5051748;28;20033;-89
2020/12/02 07:05:32;;;;;;;14.20;2.50;;;;;;;6.95;96.56;102104.28;5051419;28;20116;-89
2020/12/02 07:08:10;;;;;;;17.90;2.65;;;;;;;6.95;96.56;102106.88;5055414;28;20112;-90
2020/12/02 07:10:37;;;;;;;17.08;2.55;;;;;;;6.95;96.59;102099.06;5056588;28;20040;-90
2020/12/02 07:13:03;;;;;;;16.35;2.83;;;;;;;6.97;96.55;102088.53;5057450;28;20021;-90
2020/12/02 07:15:29;;;;;;;22.08;2.75;;;;;;;6.97;96.65;102088.53;5055730;28;20035;-90
2020/12/02 07:18:08;;;;;;;19.15;2.75;;;;;;;6.93;96.66;102087.00;5056603;28;20025;-90
2020/12/02 07:20:34;;;;;;;24.73;2.75;;;;;;;6.91;96.54;102077.50;5056782;28;20025;-90
2020/12/02 07:23:00;;;;;;;19.60;3.88;;;;;;;6.87;96.80;102078.59;5057161;28;20123;-90
2020/12/02 07:25:26;;;;;;;17.23;2.97;;;;;;;6.82;96.69;102079.78;5057210;28;20037;-89
2020/12/02 07:27:52;;;;;;;20.38;2.83;;;;;;;6.78;96.60;102083.44;5056469;28;20549;-90
2020/12/02 07:30:33;;;;;;;18.63;2.60;;;;;;;6.70;96.51;102080.44;5056564;28;20028;-90
2020/12/02 07:33:10;;;;;;;19.75;3.33;;;;;;;6.66;96.75;102081.53;5055675;28;20032;-91
2020/12/02 07:35:36;;;;;;;17.85;2.80;;;;;;;6.61;96.76;102079.13;5056886;28;20063;-90
2020/12/02 07:38:10;;;;;;;17.95;2.88;;;;;;;6.56;96.65;102087.22;5055203;28;20021;-88
2020/12/02 07:40:38;;;;;;;20.15;3.28;;;;;;;6.53;96.55;102084.75;5055677;28;20091;-90
2020/12/02 07:43:11;;;;;;;18.52;2.80;;;;;;;6.50;96.77;102087.53;5055472;28;20152;-88
2020/12/02 07:45:37;;;;;;;13.57;3.08;;;;;;;6.50;96.61;102086.69;5056297;28;20162;-90
2020/12/02 07:48:23;;;;;;;20.40;2.95;;;;;;;6.51;96.54;102084.00;5057730;28;20021;-89
2020/12/02 07:51:12;;;;;;;18.15;2.80;;;;;;;6.53;96.33;102078.72;5054981;28;20097;-90
2020/12/02 07:53:55;;;;;;;17.10;4.93;;;;;;;6.54;96.25;102067.38;5054975;28;20036;-90
2020/12/02 07:56:26;;;;;;;23.13;4.45;;;;;;;6.52;96.39;102069.22;5055116;28;20063;-89
2020/12/02 07:58:54;;;;;;;15.82;2.67;;;;;;;6.48;96.10;102076.34;5055623;28;20025;-89
2020/12/02 08:01:35;;;;;;;22.33;3.15;;;;;;;6.41;96.34;102093.22;5058341;28;20025;-91
2020/12/02 08:04:23;;;;;;;11.85;2.70;;;;;;;6.41;96.06;102110.63;5065907;28;20049;-90
2020/12/02 08:06:58;;;;;;;18.98;3.35;;;;;;;6.44;96.17;102105.25;5075759;28;20035;-89
2020/12/02 08:09:23;;;;;;;;;;;;;;;6.46;95.92;102112.06;5074966;28;20020;-89
2020/12/02 08:11:51;;;;;;;19.63;3.17;;;;;;;6.49;95.75;102104.09;5075161;28;20317;-89
2020/12/02 08:14:25;;;;;;;17.35;4.28;;;;;;;6.47;95.59;102115.50;5076426;28;20028;-88
2020/12/02 08:16:52;;;;;;;14.03;2.63;;;;;;;6.45;95.75;102102.56;5075817;28;20035;-89
2020/12/02 08:19:48;;;;;;;19.67;2.83;;;;;;;6.43;95.51;102100.97;5074359;28;20262;-89
2020/12/02 08:22:44;;;;;;;22.00;2.88;;;;;;;6.44;95.58;102095.66;5075986;28;20447;-89
2020/12/02 08:25:14;;;;;;;15.30;2.78;;;;;;;6.43;95.56;102114.81;5074897;28;20043;-89
2020/12/02 08:27:40;;;;;;;23.35;3.25;;;;;;;6.45;95.21;102115.59;5075252;28;20017;-89
2020/12/02 08:30:16;;;;;;;24.08;3.35;;;;;;;6.48;95.03;102117.22;5076639;28;20035;-89
2020/12/02 08:32:51;;;;;;;24.65;3.38;;;;;;;6.51;94.84;102119.66;5076535;28;20028;-89
2020/12/02 08:35:24;;;;;;;22.70;2.92;;;;;;;6.48;94.98;102118.06;5076566;28;20128;-88
2020/12/02 08:37:59;;;;;;;24.58;3.30;;;;;;;6.44;94.92;102115.66;5075477;28;20063;-88
2020/12/02 08:40:37;;;;;;;20.67;3.75;;;;;;;6.40;94.85;102109.78;5075641;28;20077;-90
2020/12/02 08:43:36;;;;;;;20.17;4.07;;;;;;;6.36;94.92;102110.88;5076451;28;20028;-89
2020/12/02 08:46:13;;;;;;;19.23;3.33;;;;;;;6.37;94.91;102106.50;5032499;28;20160;-88
2020/12/02 08:48:40;;;;;;;27.23;3.97;;;;;;;6.37;94.79;102115.16;5075933;28;20028;-88
2020/12/02 08:51:14;;;;;;;18.30;3.47;;;;;;;6.35;94.80;102111.78;5076096;28;20042;-88
2020/12/02 08:53:40;;;;;;;22.25;3.47;;;;;;;6.35;94.61;102105.75;5068159;28;20082;-89
2020/12/02 08:56:34;;;;;;;21.38;2.88;;;;;;;6.33;94.35;102095.41;5069302;28;20463;-89
2020/12/02 08:59:01;;;;;;;22.73;3.25;;;;;;;6.35;94.21;102087.50;5080438;28;20020;-89
2020/12/02 09:01:26;;;;;;;26.90;3.28;;;;;;;6.38;94.13;102076.91;5076949;28;20024;-88
2020/12/02 09:03:52;;;;;;;22.35;4.03;;;;;;;6.43;93.70;102080.09;5078375;28;20610;-90
2020/12/02 09:06:19;;;;;;;25.00;4.15;;;;;;;6.45;93.95;102075.66;5079854;28;20024;-90
2020/12/02 09:08:45;;;;;;;15.43;3.60;;;;;;;6.48;93.65;102071.16;5075835;28;20383;-89
2020/12/02 09:11:12;;;;;;;18.88;3.80;;;;;;;6.48;93.57;102065.94;5076850;28;20028;-90
2020/12/02 09:13:38;;;;;;;27.25;8.63;;;;;;;6.44;93.37;102068.75;5081097;28;20082;-89
2020/12/02 09:16:03;;;;;;;26.80;5.68;;;;;;;6.39;93.21;102066.41;5080596;28;20020;-89
2020/12/02 09:18:29;;;;;;;17.75;3.72;;;;;;;6.38;93.23;102069.09;5083824;28;20170;-88
2020/12/02 09:20:54;;;;;;;21.60;4.05;;;;;;;6.37;93.10;102070.00;5079059;28;20051;-89
2020/12/02 09:23:20;;;;;;;16.38;3.10;;;;;;;6.39;92.96;102069.00;5076895;28;20028;-89
2020/12/02 09:25:46;;;;;;;11.75;2.97;;;;;;;6.42;92.75;102062.78;5075303;28;20527;-90
2020/12/02 09:28:11;;;;;;;21.55;4.25;;;;;;;6.42;92.75;102063.63;5078338;28;20510;-90
2020/12/02 09:30:36;;;;;;;22.65;3.67;;;;;;;6.43;92.39;102056.66;5075093;28;20081;-90
2020/12/02 09:33:02;;;;;;;17.00;3.83;;;;;;;6.44;92.50;102053.13;5078121;28;20020;-90
2020/12/02 09:35:28;;;;;;;16.02;3.50;;;;;;;6.46;92.44;102059.94;5075040;28;20028;-90
2020/12/02 09:37:54;;;;;;;21.80;4.10;;;;;;;6.46;92.24;102057.31;5073367;28;20028;-90
2020/12/02 09:40:20;;;;;;;23.98;3.75;;;;;;;6.47;92.09;102056.44;5075102;28;20075;-90
2020/12/02 09:42:54;;;;;;;22.05;3.33;;;;;;;6.47;91.75;102059.03;5074119;28;20021;-89
2020/12/02 09:45:33;;;;;;;28.20;4.70;;;;;;;6.49;91.60;102051.97;5073634;28;20114;-90
2020/12/02 09:48:09;;;;;;;35.00;4.65;;;;;;;6.54;91.65;102049.94;5075027;28;20041;-88
2020/12/02 09:50:34;;;;;;;16.70;2.92;;;;;;;6.57;91.62;102052.41;5075554;28;20021;-89
2020/12/02 09:53:08;;;;;;;18.10;3.83;;;;;;;6.61;91.36;102045.25;5075441;28;20073;-91
2020/12/02 09:55:34;;;;;;;23.45;4.40;;;;;;;6.66;91.23;102052.84;5089905;28;20056;-89
2020/12/02 09:57:59;;;;;;;20.35;4.50;;;;;;;6.70;91.18;102038.72;5091311;28;20021;-91
2020/12/02 10:00:25;;;;;;;17.42;2.78;;;;;;;6.72;91.18;102034.25;5082423;28;20486;-89
2020/12/02 10:03:07;;;;;;;14.95;2.95;;;;;;;6.76;90.77;102027.94;5086344;28;20016;-89
2020/12/02 10:05:46;;;;;;;19.35;2.97;;;;;;;6.81;90.93;102021.56;5083249;28;20086;-90
2020/12/02 10:08:36;;;;;;;18.42;3.08;;;;;;;6.86;90.75;102018.69;5084672;28;20021;-88
2020/12/02 10:11:30;;;;;;;21.35;3.45;;;;;;;6.91;90.48;102011.44;5082361;28;20054;-89
2020/12/02 10:14:04;;;;;;;15.00;3.78;;;;;;;6.96;90.28;102016.44;5085513;28;20097;-90
2020/12/02 10:16:41;;;;;;;14.05;3.15;;;;;;;6.94;90.18;102006.06;5080813;28;20059;-89
2020/12/02 10:19:29;;;;;;;13.00;2.88;;;;;;;6.88;89.92;102002.03;5088358;28;20020;-89
2020/12/02 10:22:16;;;;;;;20.92;3.08;;;;;;;6.85;89.84;101998.75;5079384;28;20200;-89
2020/12/02 10:25:02;;;;;;;12.27;3.08;;;;;;;6.81;89.88;101986.81;5074801;28;20188;-90
2020/12/02 10:28:04;;;;;;;14.13;3.22;;;;;;;6.73;89.71;101983.78;5074861;28;20020;-89
2020/12/02 10:30:34;;;;;;;16.00;2.83;;;;;;;6.69;89.79;101971.84;5074851;28;20099;-91
2020/12/02 10:33:44;;;;;;;16.77;3.05;;;;;;;6.61;89.66;101973.09;5075771;28;20032;-90
2020/12/02 10:36:09;;;;;;;16.15;2.90;;;;;;;6.61;89.73;101974.84;5030555;28;20056;-89
2020/12/02 10:38:35;;;;;;;17.33;3.42;;;;;;;6.61;89.57;101974.84;5022461;28;20496;-90
2020/12/02 10:41:16;;;;;;;14.52;3.00;;;;;;;6.57;89.28;101968.97;5043368;28;20136;-89
2020/12/02 10:44:18;;;;;;;16.55;2.97;;;;;;;6.59;89.25;101971.50;5077808;28;20028;-90
2020/12/02 10:47:11;;;;;;;17.15;3.20;;;;;;;6.63;89.18;101973.03;5076137;28;20369;-89
2020/12/02 10:49:38;;;;;;;12.93;3.05;;;;;;;6.67;89.04;101958.88;5077085;28;20062;-89
2020/12/02 10:52:05;;;;;;;14.27;2.78;;;;;;;6.71;89.04;101955.19;5076632;28;20024;-90
2020/12/02 10:54:37;;;;;;;19.17;3.30;;;;;;;6.77;88.82;101951.38;5077217;28;20081;-90
2020/12/02 10:57:09;;;;;;;19.17;3.78;;;;;;;6.81;88.88;101948.53;5079346;28;20025;-90
2020/12/02 10:59:34;;;;;;;11.63;3.33;;;;;;;6.85;88.54;101949.19;5077810;28;20025;-91
2020/12/02 11:02:00;;;;;;;17.10;3.35;;;;;;;6.89;88.58;101941.13;5077715;28;20024;-89
2020/12/02 11:04:25;;;;;;;16.25;2.83;;;;;;;6.94;88.30;101937.41;5079419;28;20498;-90
2020/12/02 11:07:03;;;;;;;18.33;3.20;;;;;;;6.96;88.07;101931.19;5078535;28;20035;-89
2020/12/02 11:09:31;;;;;;;17.70;4.20;;;;;;;6.98;88.03;101926.72;5077685;28;20028;-89
2020/12/02 11:12:07;;;;;;;21.20;4.68;;;;;;;7.02;88.01;101925.63;5076681;28;20032;-90
2020/12/02 11:14:57;;;;;;;21.05;3.20;;;;;;;7.05;87.84;101914.16;5089785;28;20042;-88
2020/12/02 11:17:45;;;;;;;17.35;3.78;;;;;;;7.06;87.68;101916.69;5077695;28;20468;-90
2020/12/02 11:20:19;;;;;;;16.88;3.25;;;;;;;7.06;87.45;101895.81;5076826;28;20092;-90
2020/12/02 11:23:11;;;;;;;24.88;4.20;;;;;;;7.06;87.55;101895.81;5077213;28;20021;-89
2020/12/02 11:26:10;;;;;;;12.40;2.95;;;;;;;7.07;87.31;101889.66;5076253;28;20483;-88
2020/12/02 11:28:40;;;;;;;21.23;3.35;;;;;;;7.07;87.19;101875.78;5058025;28;20055;-89
2020/12/02 11:31:30;;;;;;;17.65;3.28;;;;;;;7.07;87.25;101863.56;5076704;28;20087;-90
2020/12/02 11:34:06;;;;;;;18.10;2.88;;;;;;;7.10;86.91;101863.41;5076244;28;20560;-89
2020/12/02 11:36:44;;;;;;;18.25;3.28;;;;;;;7.12;86.70;101864.16;5076416;28;20475;-90
2020/12/02 11:39:33;;;;;;;12.70;2.47;;;;;;;7.17;86.34;101850.84;5076262;28;20086;-88
2020/12/02 11:42:31;;;;;;;24.55;3.20;;;;;;;7.24;86.27;101838.25;5076577;28;20044;-88
2020/12/02 11:45:02;;;;;;;22.20;3.40;;;;;;;7.28;86.04;101839.78;5023100;28;20030;-90
2020/12/02 11:47:42;;;;;;;16.73;3.70;;;;;;;7.30;85.83;101824.84;5075247;28;20028;-88
2020/12/02 11:50:16;;;;;;;17.52;2.85;;;;;;;7.34;85.62;101813.28;5075864;28;20033;-89
2020/12/02 11:52:44;;;;;;;13.32;2.63;;;;;;;7.39;85.56;101806.00;5074798;28;20025;-91